sensor_id;sensor_type;location;lat;lon;timestamp;P1;durP1;ratioP1;P2;durP2;ratioP2
64799;SDS011;51233;51.982;4.594;2023-12-28T00:00:01;2.85;;;2.00;;
64799;SDS011;51233;51.982;4.594;2023-12-28T00:03:01;4.50;;;2.60;;
64799;SDS011;51233;51.982;4.594;2023-12-28T00:06:01;4.30;;;2.50;;
64799;SDS011;51233;51.982;4.594;2023-12-28T00:09:01;4.60;;;2.58;;
64799;SDS011;51233;51.982;4.594;2023-12-28T00:12:02;3.92;;;2.33;;
64799;SDS011;51233;51.982;4.594;2023-12-28T00:15:02;4.40;;;2.53;;
64799;SDS011;51233;51.982;4.594;2023-12-28T00:18:02;3.60;;;1.95;;
64799;SDS011;51233;51.982;4.594;2023-12-28T00:21:03;3.80;;;2.25;;
64799;SDS011;51233;51.982;4.594;2023-12-28T00:24:03;3.95;;;2.22;;
64799;SDS011;51233;51.982;4.594;2023-12-28T00:27:04;7.22;;;2.55;;
64799;SDS011;51233;51.982;4.594;2023-12-28T00:30:05;5.00;;;2.10;;
64799;SDS011;51233;51.982;4.594;2023-12-28T00:33:05;8.03;;;2.33;;
64799;SDS011;51233;51.982;4.594;2023-12-28T00:36:05;4.83;;;2.50;;
64799;SDS011;51233;51.982;4.594;2023-12-28T00:39:05;5.97;;;2.38;;
64799;SDS011;51233;51.982;4.594;2023-12-28T00:42:06;4.15;;;2.05;;
64799;SDS011;51233;51.982;4.594;2023-12-28T00:45:07;6.88;;;2.22;;
64799;SDS011;51233;51.982;4.594;2023-12-28T00:48:07;5.65;;;2.20;;
64799;SDS011;51233;51.982;4.594;2023-12-28T00:51:07;7.28;;;1.65;;
64799;SDS011;51233;51.982;4.594;2023-12-28T00:54:07;7.07;;;2.20;;
64799;SDS011;51233;51.982;4.594;2023-12-28T00:57:08;4.95;;;2.28;;
64799;SDS011;51233;51.982;4.594;2023-12-28T01:00:08;5.03;;;1.85;;
64799;SDS011;51233;51.982;4.594;2023-12-28T01:03:08;4.20;;;2.03;;
64799;SDS011;51233;51.982;4.594;2023-12-28T01:06:08;6.43;;;2.20;;
64799;SDS011;51233;51.982;4.594;2023-12-28T01:09:09;8.98;;;2.80;;
64799;SDS011;51233;51.982;4.594;2023-12-28T01:12:09;5.55;;;2.35;;
64799;SDS011;51233;51.982;4.594;2023-12-28T01:15:09;4.30;;;1.85;;
64799;SDS011;51233;51.982;4.594;2023-12-28T01:18:09;3.92;;;1.65;;
64799;SDS011;51233;51.982;4.594;2023-12-28T01:21:10;7.00;;;2.25;;
64799;SDS011;51233;51.982;4.594;2023-12-28T01:24:10;4.90;;;2.10;;
64799;SDS011;51233;51.982;4.594;2023-12-28T01:27:10;5.40;;;2.05;;
64799;SDS011;51233;51.982;4.594;2023-12-28T01:30:10;5.72;;;2.10;;
64799;SDS011;51233;51.982;4.594;2023-12-28T01:33:10;4.45;;;2.38;;
64799;SDS011;51233;51.982;4.594;2023-12-28T01:36:20;4.63;;;2.13;;
64799;SDS011;51233;51.982;4.594;2023-12-28T01:39:21;2.72;;;2.13;;
64799;SDS011;51233;51.982;4.594;2023-12-28T01:42:21;4.68;;;2.60;;
64799;SDS011;51233;51.982;4.594;2023-12-28T01:45:21;7.43;;;2.30;;
64799;SDS011;51233;51.982;4.594;2023-12-28T01:48:21;4.38;;;2.30;;
64799;SDS011;51233;51.982;4.594;2023-12-28T01:51:22;5.70;;;2.92;;
64799;SDS011;51233;51.982;4.594;2023-12-28T01:54:23;5.55;;;2.38;;
64799;SDS011;51233;51.982;4.594;2023-12-28T01:57:23;4.20;;;2.25;;
64799;SDS011;51233;51.982;4.594;2023-12-28T02:00:24;6.28;;;2.25;;
64799;SDS011;51233;51.982;4.594;2023-12-28T02:03:24;6.57;;;2.20;;
64799;SDS011;51233;51.982;4.594;2023-12-28T02:06:25;3.72;;;2.03;;
64799;SDS011;51233;51.982;4.594;2023-12-28T02:09:25;4.93;;;2.40;;
64799;SDS011;51233;51.982;4.594;2023-12-28T02:12:25;5.75;;;2.45;;
64799;SDS011;51233;51.982;4.594;2023-12-28T02:15:26;5.05;;;2.22;;
64799;SDS011;51233;51.982;4.594;2023-12-28T02:18:29;7.13;;;2.40;;
64799;SDS011;51233;51.982;4.594;2023-12-28T02:21:30;4.53;;;2.10;;
64799;SDS011;51233;51.982;4.594;2023-12-28T02:24:31;6.80;;;2.28;;
64799;SDS011;51233;51.982;4.594;2023-12-28T02:27:32;4.53;;;2.13;;
64799;SDS011;51233;51.982;4.594;2023-12-28T02:30:32;4.70;;;2.15;;
64799;SDS011;51233;51.982;4.594;2023-12-28T02:33:38;4.82;;;2.22;;
64799;SDS011;51233;51.982;4.594;2023-12-28T02:36:44;4.65;;;2.00;;
64799;SDS011;51233;51.982;4.594;2023-12-28T02:42:45;7.22;;;2.30;;
64799;SDS011;51233;51.982;4.594;2023-12-28T02:45:45;7.85;;;1.88;;
64799;SDS011;51233;51.982;4.594;2023-12-28T02:48:45;5.55;;;2.20;;
64799;SDS011;51233;51.982;4.594;2023-12-28T02:51:45;6.85;;;2.22;;
64799;SDS011;51233;51.982;4.594;2023-12-28T02:54:45;5.53;;;2.13;;
64799;SDS011;51233;51.982;4.594;2023-12-28T02:57:46;6.95;;;2.63;;
64799;SDS011;51233;51.982;4.594;2023-12-28T03:00:46;9.00;;;2.47;;
64799;SDS011;51233;51.982;4.594;2023-12-28T03:03:46;4.55;;;2.00;;
64799;SDS011;51233;51.982;4.594;2023-12-28T03:06:46;3.95;;;1.98;;
64799;SDS011;51233;51.982;4.594;2023-12-28T03:09:46;5.43;;;2.03;;
64799;SDS011;51233;51.982;4.594;2023-12-28T03:12:47;7.20;;;1.88;;
64799;SDS011;51233;51.982;4.594;2023-12-28T03:15:48;7.80;;;2.17;;
64799;SDS011;51233;51.982;4.594;2023-12-28T03:18:48;10.68;;;2.03;;
64799;SDS011;51233;51.982;4.594;2023-12-28T03:21:48;6.70;;;1.80;;
64799;SDS011;51233;51.982;4.594;2023-12-28T03:24:48;5.57;;;2.10;;
64799;SDS011;51233;51.982;4.594;2023-12-28T03:27:48;8.15;;;2.50;;
64799;SDS011;51233;51.982;4.594;2023-12-28T03:30:49;9.70;;;2.60;;
64799;SDS011;51233;51.982;4.594;2023-12-28T03:33:49;5.10;;;2.10;;
64799;SDS011;51233;51.982;4.594;2023-12-28T03:36:49;5.18;;;1.90;;
64799;SDS011;51233;51.982;4.594;2023-12-28T03:39:49;7.85;;;1.98;;
64799;SDS011;51233;51.982;4.594;2023-12-28T03:42:50;10.40;;;2.50;;
64799;SDS011;51233;51.982;4.594;2023-12-28T03:45:50;8.25;;;2.47;;
64799;SDS011;51233;51.982;4.594;2023-12-28T03:48:50;8.27;;;2.33;;
64799;SDS011;51233;51.982;4.594;2023-12-28T03:51:50;6.15;;;2.38;;
64799;SDS011;51233;51.982;4.594;2023-12-28T03:54:50;6.27;;;1.90;;
64799;SDS011;51233;51.982;4.594;2023-12-28T03:57:50;6.43;;;2.10;;
64799;SDS011;51233;51.982;4.594;2023-12-28T04:00:51;10.00;;;2.47;;
64799;SDS011;51233;51.982;4.594;2023-12-28T04:03:52;11.63;;;2.53;;
64799;SDS011;51233;51.982;4.594;2023-12-28T04:06:52;12.23;;;3.17;;
64799;SDS011;51233;51.982;4.594;2023-12-28T04:09:52;7.13;;;2.20;;
64799;SDS011;51233;51.982;4.594;2023-12-28T04:12:52;12.25;;;3.15;;
64799;SDS011;51233;51.982;4.594;2023-12-28T04:15:57;11.05;;;2.33;;
64799;SDS011;51233;51.982;4.594;2023-12-28T04:18:57;5.90;;;1.73;;
64799;SDS011;51233;51.982;4.594;2023-12-28T04:21:57;11.80;;;2.78;;
64799;SDS011;51233;51.982;4.594;2023-12-28T04:24:57;9.05;;;2.40;;
64799;SDS011;51233;51.982;4.594;2023-12-28T04:27:58;9.65;;;2.30;;
64799;SDS011;51233;51.982;4.594;2023-12-28T04:30:58;11.50;;;3.00;;
64799;SDS011;51233;51.982;4.594;2023-12-28T04:33:58;7.82;;;2.17;;
64799;SDS011;51233;51.982;4.594;2023-12-28T04:36:58;10.00;;;2.33;;
64799;SDS011;51233;51.982;4.594;2023-12-28T04:39:58;11.33;;;2.60;;
64799;SDS011;51233;51.982;4.594;2023-12-28T04:42:58;11.97;;;3.60;;
64799;SDS011;51233;51.982;4.594;2023-12-28T04:46:02;9.70;;;2.25;;
64799;SDS011;51233;51.982;4.594;2023-12-28T04:49:02;12.00;;;2.80;;
64799;SDS011;51233;51.982;4.594;2023-12-28T04:52:02;11.32;;;2.90;;
64799;SDS011;51233;51.982;4.594;2023-12-28T04:55:03;15.70;;;3.43;;
64799;SDS011;51233;51.982;4.594;2023-12-28T04:58:03;8.37;;;2.70;;
64799;SDS011;51233;51.982;4.594;2023-12-28T05:01:03;12.10;;;3.42;;
64799;SDS011;51233;51.982;4.594;2023-12-28T05:04:03;11.05;;;2.60;;
64799;SDS011;51233;51.982;4.594;2023-12-28T05:07:04;17.23;;;3.15;;
64799;SDS011;51233;51.982;4.594;2023-12-28T05:10:04;14.57;;;3.37;;
64799;SDS011;51233;51.982;4.594;2023-12-28T05:13:04;9.68;;;2.53;;
64799;SDS011;51233;51.982;4.594;2023-12-28T05:16:05;11.70;;;2.88;;
64799;SDS011;51233;51.982;4.594;2023-12-28T05:19:05;8.65;;;3.00;;
64799;SDS011;51233;51.982;4.594;2023-12-28T05:22:06;15.25;;;3.38;;
64799;SDS011;51233;51.982;4.594;2023-12-28T05:25:08;16.42;;;3.17;;
64799;SDS011;51233;51.982;4.594;2023-12-28T05:28:08;14.82;;;2.70;;
64799;SDS011;51233;51.982;4.594;2023-12-28T05:31:09;11.95;;;3.00;;
64799;SDS011;51233;51.982;4.594;2023-12-28T05:34:09;12.80;;;3.15;;
64799;SDS011;51233;51.982;4.594;2023-12-28T05:37:10;12.32;;;3.33;;
64799;SDS011;51233;51.982;4.594;2023-12-28T05:40:10;12.03;;;3.40;;
64799;SDS011;51233;51.982;4.594;2023-12-28T05:43:11;16.77;;;3.10;;
64799;SDS011;51233;51.982;4.594;2023-12-28T05:46:11;16.23;;;3.40;;
64799;SDS011;51233;51.982;4.594;2023-12-28T05:49:11;13.52;;;3.35;;
64799;SDS011;51233;51.982;4.594;2023-12-28T05:52:11;17.58;;;3.88;;
64799;SDS011;51233;51.982;4.594;2023-12-28T05:55:14;14.57;;;3.15;;
64799;SDS011;51233;51.982;4.594;2023-12-28T05:58:15;12.50;;;3.10;;
64799;SDS011;51233;51.982;4.594;2023-12-28T06:01:15;17.77;;;4.47;;
64799;SDS011;51233;51.982;4.594;2023-12-28T06:04:15;18.00;;;3.70;;
64799;SDS011;51233;51.982;4.594;2023-12-28T06:07:15;18.23;;;4.07;;
64799;SDS011;51233;51.982;4.594;2023-12-28T06:10:16;10.10;;;2.20;;
64799;SDS011;51233;51.982;4.594;2023-12-28T06:13:16;19.45;;;4.15;;
64799;SDS011;51233;51.982;4.594;2023-12-28T06:16:16;17.65;;;4.05;;
64799;SDS011;51233;51.982;4.594;2023-12-28T06:19:16;17.40;;;3.90;;
64799;SDS011;51233;51.982;4.594;2023-12-28T06:22:16;13.48;;;3.65;;
64799;SDS011;51233;51.982;4.594;2023-12-28T06:25:16;15.23;;;3.65;;
64799;SDS011;51233;51.982;4.594;2023-12-28T06:28:17;17.20;;;4.10;;
64799;SDS011;51233;51.982;4.594;2023-12-28T06:31:17;17.27;;;4.57;;
64799;SDS011;51233;51.982;4.594;2023-12-28T06:34:17;23.38;;;5.13;;
64799;SDS011;51233;51.982;4.594;2023-12-28T06:37:17;17.98;;;4.53;;
64799;SDS011;51233;51.982;4.594;2023-12-28T06:40:18;15.93;;;3.70;;
64799;SDS011;51233;51.982;4.594;2023-12-28T06:43:18;19.13;;;4.78;;
64799;SDS011;51233;51.982;4.594;2023-12-28T06:46:18;19.33;;;4.65;;
64799;SDS011;51233;51.982;4.594;2023-12-28T06:49:18;16.38;;;3.72;;
64799;SDS011;51233;51.982;4.594;2023-12-28T06:52:18;19.70;;;4.97;;
64799;SDS011;51233;51.982;4.594;2023-12-28T06:55:19;19.98;;;4.60;;
64799;SDS011;51233;51.982;4.594;2023-12-28T06:58:19;20.42;;;5.13;;
64799;SDS011;51233;51.982;4.594;2023-12-28T07:01:19;19.85;;;4.35;;
64799;SDS011;51233;51.982;4.594;2023-12-28T07:04:19;19.85;;;4.15;;
64799;SDS011;51233;51.982;4.594;2023-12-28T07:07:19;22.50;;;4.80;;
64799;SDS011;51233;51.982;4.594;2023-12-28T07:10:20;22.70;;;5.15;;
64799;SDS011;51233;51.982;4.594;2023-12-28T07:13:20;23.48;;;4.60;;
64799;SDS011;51233;51.982;4.594;2023-12-28T07:16:20;21.60;;;4.40;;
64799;SDS011;51233;51.982;4.594;2023-12-28T07:19:20;20.85;;;4.45;;
64799;SDS011;51233;51.982;4.594;2023-12-28T07:22:21;16.70;;;3.60;;
64799;SDS011;51233;51.982;4.594;2023-12-28T07:25:21;17.45;;;3.53;;
64799;SDS011;51233;51.982;4.594;2023-12-28T07:28:21;17.35;;;4.30;;
64799;SDS011;51233;51.982;4.594;2023-12-28T07:31:22;17.37;;;4.13;;
64799;SDS011;51233;51.982;4.594;2023-12-28T07:34:22;13.52;;;3.38;;
64799;SDS011;51233;51.982;4.594;2023-12-28T07:37:22;18.13;;;4.78;;
64799;SDS011;51233;51.982;4.594;2023-12-28T07:40:22;17.80;;;3.95;;
64799;SDS011;51233;51.982;4.594;2023-12-28T07:43:23;15.40;;;2.93;;
64799;SDS011;51233;51.982;4.594;2023-12-28T07:46:23;18.93;;;4.10;;
64799;SDS011;51233;51.982;4.594;2023-12-28T07:49:23;14.90;;;4.07;;
64799;SDS011;51233;51.982;4.594;2023-12-28T07:52:23;16.77;;;3.90;;
64799;SDS011;51233;51.982;4.594;2023-12-28T07:55:23;13.17;;;3.53;;
64799;SDS011;51233;51.982;4.594;2023-12-28T07:58:24;13.50;;;2.85;;
64799;SDS011;51233;51.982;4.594;2023-12-28T08:01:24;17.02;;;4.15;;
64799;SDS011;51233;51.982;4.594;2023-12-28T08:04:25;15.35;;;3.72;;
64799;SDS011;51233;51.982;4.594;2023-12-28T08:07:25;16.90;;;3.10;;
64799;SDS011;51233;51.982;4.594;2023-12-28T08:10:25;23.23;;;4.38;;
64799;SDS011;51233;51.982;4.594;2023-12-28T08:13:25;15.47;;;3.63;;
64799;SDS011;51233;51.982;4.594;2023-12-28T08:16:25;17.75;;;4.13;;
64799;SDS011;51233;51.982;4.594;2023-12-28T08:19:26;16.92;;;3.40;;
64799;SDS011;51233;51.982;4.594;2023-12-28T08:22:26;17.48;;;3.95;;
64799;SDS011;51233;51.982;4.594;2023-12-28T08:25:28;20.15;;;4.55;;
64799;SDS011;51233;51.982;4.594;2023-12-28T08:28:28;14.52;;;4.07;;
64799;SDS011;51233;51.982;4.594;2023-12-28T08:31:28;15.77;;;4.13;;
64799;SDS011;51233;51.982;4.594;2023-12-28T08:34:29;14.27;;;3.40;;
64799;SDS011;51233;51.982;4.594;2023-12-28T08:37:29;14.57;;;3.85;;
64799;SDS011;51233;51.982;4.594;2023-12-28T08:40:30;9.87;;;2.73;;
64799;SDS011;51233;51.982;4.594;2023-12-28T08:43:30;15.32;;;4.05;;
64799;SDS011;51233;51.982;4.594;2023-12-28T08:46:30;17.00;;;3.90;;
64799;SDS011;51233;51.982;4.594;2023-12-28T08:49:31;14.10;;;3.67;;
64799;SDS011;51233;51.982;4.594;2023-12-28T08:55:33;19.13;;;5.10;;
64799;SDS011;51233;51.982;4.594;2023-12-28T08:58:36;15.82;;;4.15;;
64799;SDS011;51233;51.982;4.594;2023-12-28T09:01:37;17.83;;;4.27;;
64799;SDS011;51233;51.982;4.594;2023-12-28T09:04:37;13.43;;;4.40;;
64799;SDS011;51233;51.982;4.594;2023-12-28T09:07:38;16.55;;;3.83;;
64799;SDS011;51233;51.982;4.594;2023-12-28T09:10:42;9.48;;;2.88;;
64799;SDS011;51233;51.982;4.594;2023-12-28T09:13:43;17.10;;;4.22;;
64799;SDS011;51233;51.982;4.594;2023-12-28T09:16:43;19.60;;;4.40;;
64799;SDS011;51233;51.982;4.594;2023-12-28T09:22:45;17.45;;;3.28;;
64799;SDS011;51233;51.982;4.594;2023-12-28T09:25:47;15.38;;;3.80;;
64799;SDS011;51233;51.982;4.594;2023-12-28T09:28:49;18.95;;;3.72;;
64799;SDS011;51233;51.982;4.594;2023-12-28T09:31:49;18.23;;;4.38;;
64799;SDS011;51233;51.982;4.594;2023-12-28T09:34:49;15.65;;;3.85;;
64799;SDS011;51233;51.982;4.594;2023-12-28T09:37:49;15.93;;;4.03;;
64799;SDS011;51233;51.982;4.594;2023-12-28T09:40:53;17.15;;;4.03;;
64799;SDS011;51233;51.982;4.594;2023-12-28T09:43:54;20.30;;;4.68;;
64799;SDS011;51233;51.982;4.594;2023-12-28T09:46:56;19.10;;;4.50;;
64799;SDS011;51233;51.982;4.594;2023-12-28T09:49:57;21.95;;;4.00;;
64799;SDS011;51233;51.982;4.594;2023-12-28T09:52:58;17.75;;;3.88;;
64799;SDS011;51233;51.982;4.594;2023-12-28T09:55:58;18.52;;;4.50;;
64799;SDS011;51233;51.982;4.594;2023-12-28T09:58:59;17.23;;;3.80;;
64799;SDS011;51233;51.982;4.594;2023-12-28T10:02:02;17.63;;;3.35;;
64799;SDS011;51233;51.982;4.594;2023-12-28T10:05:04;19.40;;;4.65;;
64799;SDS011;51233;51.982;4.594;2023-12-28T10:08:05;18.85;;;4.05;;
64799;SDS011;51233;51.982;4.594;2023-12-28T10:11:05;17.50;;;4.40;;
64799;SDS011;51233;51.982;4.594;2023-12-28T10:14:06;18.95;;;3.90;;
64799;SDS011;51233;51.982;4.594;2023-12-28T10:17:07;17.63;;;4.47;;
64799;SDS011;51233;51.982;4.594;2023-12-28T10:20:07;17.55;;;4.10;;
64799;SDS011;51233;51.982;4.594;2023-12-28T10:23:09;23.20;;;4.10;;
64799;SDS011;51233;51.982;4.594;2023-12-28T10:26:10;20.23;;;3.83;;
64799;SDS011;51233;51.982;4.594;2023-12-28T10:29:10;14.63;;;3.53;;
64799;SDS011;51233;51.982;4.594;2023-12-28T10:32:11;21.00;;;4.37;;
64799;SDS011;51233;51.982;4.594;2023-12-28T10:35:12;19.95;;;4.63;;
64799;SDS011;51233;51.982;4.594;2023-12-28T10:38:13;16.52;;;3.60;;
64799;SDS011;51233;51.982;4.594;2023-12-28T10:41:16;24.70;;;5.03;;
64799;SDS011;51233;51.982;4.594;2023-12-28T10:44:17;19.83;;;4.50;;
64799;SDS011;51233;51.982;4.594;2023-12-28T10:47:19;14.63;;;3.47;;
64799;SDS011;51233;51.982;4.594;2023-12-28T10:50:20;19.02;;;4.13;;
64799;SDS011;51233;51.982;4.594;2023-12-28T10:53:38;18.38;;;4.95;;
64799;SDS011;51233;51.982;4.594;2023-12-28T10:56:46;18.65;;;3.80;;
64799;SDS011;51233;51.982;4.594;2023-12-28T11:00:09;20.80;;;4.30;;
64799;SDS011;51233;51.982;4.594;2023-12-28T11:03:10;20.42;;;4.07;;
64799;SDS011;51233;51.982;4.594;2023-12-28T11:06:11;17.15;;;4.15;;
64799;SDS011;51233;51.982;4.594;2023-12-28T11:09:12;24.33;;;4.75;;
64799;SDS011;51233;51.982;4.594;2023-12-28T11:12:13;18.47;;;3.93;;
64799;SDS011;51233;51.982;4.594;2023-12-28T11:15:17;20.65;;;3.90;;
64799;SDS011;51233;51.982;4.594;2023-12-28T11:18:18;15.63;;;3.90;;
64799;SDS011;51233;51.982;4.594;2023-12-28T11:21:20;17.50;;;3.80;;
64799;SDS011;51233;51.982;4.594;2023-12-28T11:24:22;23.33;;;4.80;;
64799;SDS011;51233;51.982;4.594;2023-12-28T11:27:22;20.30;;;4.28;;
64799;SDS011;51233;51.982;4.594;2023-12-28T11:30:25;18.02;;;4.50;;
64799;SDS011;51233;51.982;4.594;2023-12-28T11:33:30;18.17;;;4.13;;
64799;SDS011;51233;51.982;4.594;2023-12-28T11:36:32;24.15;;;4.20;;
64799;SDS011;51233;51.982;4.594;2023-12-28T11:39:35;18.67;;;4.45;;
64799;SDS011;51233;51.982;4.594;2023-12-28T11:42:36;21.60;;;4.53;;
64799;SDS011;51233;51.982;4.594;2023-12-28T11:45:47;18.05;;;3.88;;
64799;SDS011;51233;51.982;4.594;2023-12-28T11:48:49;22.52;;;4.40;;
64799;SDS011;51233;51.982;4.594;2023-12-28T11:51:53;19.10;;;4.50;;
64799;SDS011;51233;51.982;4.594;2023-12-28T11:54:54;18.42;;;4.15;;
64799;SDS011;51233;51.982;4.594;2023-12-28T11:57:54;25.27;;;4.55;;
64799;SDS011;51233;51.982;4.594;2023-12-28T12:00:54;21.58;;;4.97;;
64799;SDS011;51233;51.982;4.594;2023-12-28T12:03:55;26.70;;;4.95;;
64799;SDS011;51233;51.982;4.594;2023-12-28T12:06:55;17.63;;;3.80;;
64799;SDS011;51233;51.982;4.594;2023-12-28T12:09:56;17.62;;;4.22;;
64799;SDS011;51233;51.982;4.594;2023-12-28T12:12:56;18.27;;;4.03;;
64799;SDS011;51233;51.982;4.594;2023-12-28T12:15:56;19.73;;;4.13;;
64799;SDS011;51233;51.982;4.594;2023-12-28T12:18:57;17.73;;;4.07;;
64799;SDS011;51233;51.982;4.594;2023-12-28T12:21:58;17.50;;;4.40;;
64799;SDS011;51233;51.982;4.594;2023-12-28T12:24:59;18.92;;;4.50;;
64799;SDS011;51233;51.982;4.594;2023-12-28T12:28:00;19.52;;;4.65;;
64799;SDS011;51233;51.982;4.594;2023-12-28T12:31:00;20.92;;;4.10;;
64799;SDS011;51233;51.982;4.594;2023-12-28T12:34:04;20.60;;;4.70;;
64799;SDS011;51233;51.982;4.594;2023-12-28T12:37:04;19.30;;;3.83;;
64799;SDS011;51233;51.982;4.594;2023-12-28T12:40:04;20.48;;;4.50;;
64799;SDS011;51233;51.982;4.594;2023-12-28T12:43:06;19.83;;;4.55;;
64799;SDS011;51233;51.982;4.594;2023-12-28T12:46:08;22.02;;;4.38;;
64799;SDS011;51233;51.982;4.594;2023-12-28T12:49:09;13.55;;;3.30;;
64799;SDS011;51233;51.982;4.594;2023-12-28T12:52:10;21.40;;;4.37;;
64799;SDS011;51233;51.982;4.594;2023-12-28T12:55:10;12.93;;;3.40;;
64799;SDS011;51233;51.982;4.594;2023-12-28T12:58:11;23.92;;;4.88;;
64799;SDS011;51233;51.982;4.594;2023-12-28T13:01:13;19.33;;;4.05;;
64799;SDS011;51233;51.982;4.594;2023-12-28T13:04:13;18.48;;;4.75;;
64799;SDS011;51233;51.982;4.594;2023-12-28T13:07:14;21.40;;;4.53;;
64799;SDS011;51233;51.982;4.594;2023-12-28T13:10:14;18.30;;;4.55;;
64799;SDS011;51233;51.982;4.594;2023-12-28T13:13:14;16.83;;;3.53;;
64799;SDS011;51233;51.982;4.594;2023-12-28T13:16:14;21.13;;;4.25;;
64799;SDS011;51233;51.982;4.594;2023-12-28T13:19:15;18.92;;;4.13;;
64799;SDS011;51233;51.982;4.594;2023-12-28T13:22:15;19.92;;;4.22;;
64799;SDS011;51233;51.982;4.594;2023-12-28T13:25:15;12.60;;;3.10;;
64799;SDS011;51233;51.982;4.594;2023-12-28T13:28:15;18.65;;;4.00;;
64799;SDS011;51233;51.982;4.594;2023-12-28T13:31:15;20.85;;;4.95;;
64799;SDS011;51233;51.982;4.594;2023-12-28T13:34:18;17.80;;;3.45;;
64799;SDS011;51233;51.982;4.594;2023-12-28T13:37:22;19.13;;;4.15;;
64799;SDS011;51233;51.982;4.594;2023-12-28T13:40:23;24.58;;;4.70;;
64799;SDS011;51233;51.982;4.594;2023-12-28T13:43:23;18.17;;;4.57;;
64799;SDS011;51233;51.982;4.594;2023-12-28T13:46:23;22.25;;;4.85;;
64799;SDS011;51233;51.982;4.594;2023-12-28T13:49:23;21.20;;;5.32;;
64799;SDS011;51233;51.982;4.594;2023-12-28T13:52:25;18.17;;;4.90;;
64799;SDS011;51233;51.982;4.594;2023-12-28T13:55:26;20.35;;;4.45;;
64799;SDS011;51233;51.982;4.594;2023-12-28T14:01:28;19.45;;;4.13;;
64799;SDS011;51233;51.982;4.594;2023-12-28T14:04:28;21.42;;;4.53;;
64799;SDS011;51233;51.982;4.594;2023-12-28T14:07:28;21.33;;;4.47;;
64799;SDS011;51233;51.982;4.594;2023-12-28T14:10:28;19.90;;;4.82;;
64799;SDS011;51233;51.982;4.594;2023-12-28T14:13:28;19.88;;;4.13;;
64799;SDS011;51233;51.982;4.594;2023-12-28T14:19:31;19.38;;;4.10;;
64799;SDS011;51233;51.982;4.594;2023-12-28T14:22:32;20.77;;;4.72;;
64799;SDS011;51233;51.982;4.594;2023-12-28T14:25:32;21.73;;;4.00;;
64799;SDS011;51233;51.982;4.594;2023-12-28T14:28:32;19.25;;;3.88;;
64799;SDS011;51233;51.982;4.594;2023-12-28T14:31:34;21.80;;;4.30;;
64799;SDS011;51233;51.982;4.594;2023-12-28T14:34:34;24.42;;;4.93;;
64799;SDS011;51233;51.982;4.594;2023-12-28T14:37:34;22.08;;;4.75;;
64799;SDS011;51233;51.982;4.594;2023-12-28T14:40:35;20.40;;;4.00;;
64799;SDS011;51233;51.982;4.594;2023-12-28T14:43:35;21.45;;;4.32;;
64799;SDS011;51233;51.982;4.594;2023-12-28T14:46:35;23.34;;;4.66;;
64799;SDS011;51233;51.982;4.594;2023-12-28T14:49:35;16.08;;;3.42;;
64799;SDS011;51233;51.982;4.594;2023-12-28T14:52:36;20.23;;;3.35;;
64799;SDS011;51233;51.982;4.594;2023-12-28T14:55:38;18.13;;;3.83;;
64799;SDS011;51233;51.982;4.594;2023-12-28T14:58:38;17.50;;;4.63;;
64799;SDS011;51233;51.982;4.594;2023-12-28T15:01:39;23.70;;;4.55;;
64799;SDS011;51233;51.982;4.594;2023-12-28T15:04:40;17.52;;;4.35;;
64799;SDS011;51233;51.982;4.594;2023-12-28T15:07:40;15.65;;;3.67;;
64799;SDS011;51233;51.982;4.594;2023-12-28T15:10:41;21.98;;;4.47;;
64799;SDS011;51233;51.982;4.594;2023-12-28T15:13:41;18.80;;;3.88;;
64799;SDS011;51233;51.982;4.594;2023-12-28T15:16:42;23.58;;;5.10;;
64799;SDS011;51233;51.982;4.594;2023-12-28T15:19:42;19.58;;;4.40;;
64799;SDS011;51233;51.982;4.594;2023-12-28T15:22:43;19.10;;;4.35;;
64799;SDS011;51233;51.982;4.594;2023-12-28T15:25:43;19.65;;;4.50;;
64799;SDS011;51233;51.982;4.594;2023-12-28T15:28:46;16.88;;;3.60;;
64799;SDS011;51233;51.982;4.594;2023-12-28T15:31:48;16.75;;;3.50;;
64799;SDS011;51233;51.982;4.594;2023-12-28T15:34:48;16.42;;;3.95;;
64799;SDS011;51233;51.982;4.594;2023-12-28T15:37:48;19.75;;;3.53;;
64799;SDS011;51233;51.982;4.594;2023-12-28T15:40:50;15.80;;;3.90;;
64799;SDS011;51233;51.982;4.594;2023-12-28T15:43:50;15.73;;;3.83;;
64799;SDS011;51233;51.982;4.594;2023-12-28T15:46:50;19.60;;;4.95;;
64799;SDS011;51233;51.982;4.594;2023-12-28T15:49:51;16.27;;;4.13;;
64799;SDS011;51233;51.982;4.594;2023-12-28T15:52:51;19.40;;;6.35;;
64799;SDS011;51233;51.982;4.594;2023-12-28T15:55:51;19.13;;;5.53;;
64799;SDS011;51233;51.982;4.594;2023-12-28T15:58:51;18.83;;;4.75;;
64799;SDS011;51233;51.982;4.594;2023-12-28T16:01:51;23.45;;;4.70;;
64799;SDS011;51233;51.982;4.594;2023-12-28T16:04:52;15.90;;;4.72;;
64799;SDS011;51233;51.982;4.594;2023-12-28T16:07:52;20.50;;;5.25;;
64799;SDS011;51233;51.982;4.594;2023-12-28T16:10:52;17.33;;;3.80;;
64799;SDS011;51233;51.982;4.594;2023-12-28T16:13:53;3.13;;;1.15;;
64799;SDS011;51233;51.982;4.594;2023-12-28T16:16:53;14.53;;;3.40;;
64799;SDS011;51233;51.982;4.594;2023-12-28T16:19:53;15.88;;;3.92;;
64799;SDS011;51233;51.982;4.594;2023-12-28T16:22:54;18.23;;;3.75;;
64799;SDS011;51233;51.982;4.594;2023-12-28T16:25:55;16.45;;;4.00;;
64799;SDS011;51233;51.982;4.594;2023-12-28T16:28:55;18.80;;;4.60;;
64799;SDS011;51233;51.982;4.594;2023-12-28T16:31:55;17.00;;;3.97;;
64799;SDS011;51233;51.982;4.594;2023-12-28T16:35:00;18.77;;;3.63;;
64799;SDS011;51233;51.982;4.594;2023-12-28T16:38:00;15.48;;;3.78;;
64799;SDS011;51233;51.982;4.594;2023-12-28T16:41:00;12.00;;;3.05;;
64799;SDS011;51233;51.982;4.594;2023-12-28T16:44:01;12.68;;;3.55;;
64799;SDS011;51233;51.982;4.594;2023-12-28T16:47:01;17.48;;;4.18;;
64799;SDS011;51233;51.982;4.594;2023-12-28T16:50:02;22.20;;;4.47;;
64799;SDS011;51233;51.982;4.594;2023-12-28T16:53:03;17.42;;;4.05;;
64799;SDS011;51233;51.982;4.594;2023-12-28T16:56:03;20.73;;;3.90;;
64799;SDS011;51233;51.982;4.594;2023-12-28T16:59:03;21.00;;;3.83;;
64799;SDS011;51233;51.982;4.594;2023-12-28T17:02:04;20.33;;;4.53;;
64799;SDS011;51233;51.982;4.594;2023-12-28T17:05:04;17.05;;;4.43;;
64799;SDS011;51233;51.982;4.594;2023-12-28T17:08:05;16.27;;;3.97;;
64799;SDS011;51233;51.982;4.594;2023-12-28T17:11:11;16.42;;;4.25;;
64799;SDS011;51233;51.982;4.594;2023-12-28T17:14:12;12.25;;;3.35;;
64799;SDS011;51233;51.982;4.594;2023-12-28T17:17:12;15.75;;;3.85;;
64799;SDS011;51233;51.982;4.594;2023-12-28T17:20:12;18.95;;;3.85;;
64799;SDS011;51233;51.982;4.594;2023-12-28T17:23:26;17.40;;;4.20;;
64799;SDS011;51233;51.982;4.594;2023-12-28T17:26:32;15.73;;;4.20;;
64799;SDS011;51233;51.982;4.594;2023-12-28T17:29:34;19.42;;;4.18;;
64799;SDS011;51233;51.982;4.594;2023-12-28T17:32:35;13.55;;;3.72;;
64799;SDS011;51233;51.982;4.594;2023-12-28T17:35:37;18.13;;;4.38;;
64799;SDS011;51233;51.982;4.594;2023-12-28T17:38:38;17.40;;;4.50;;
64799;SDS011;51233;51.982;4.594;2023-12-28T17:41:40;11.82;;;3.90;;
64799;SDS011;51233;51.982;4.594;2023-12-28T17:44:41;16.77;;;4.68;;
64799;SDS011;51233;51.982;4.594;2023-12-28T17:50:42;12.95;;;3.25;;
64799;SDS011;51233;51.982;4.594;2023-12-28T17:53:43;14.98;;;3.10;;
64799;SDS011;51233;51.982;4.594;2023-12-28T17:56:44;14.20;;;3.28;;
64799;SDS011;51233;51.982;4.594;2023-12-28T17:59:44;10.52;;;3.05;;
64799;SDS011;51233;51.982;4.594;2023-12-28T18:02:44;18.85;;;4.45;;
64799;SDS011;51233;51.982;4.594;2023-12-28T18:05:45;19.98;;;4.15;;
64799;SDS011;51233;51.982;4.594;2023-12-28T18:08:45;16.13;;;5.00;;
64799;SDS011;51233;51.982;4.594;2023-12-28T18:11:46;20.42;;;4.50;;
64799;SDS011;51233;51.982;4.594;2023-12-28T18:14:46;20.25;;;4.13;;